Time;durP1;ratioP1;P1;durP2;ratioP2;P2;SDS_P1;SDS_P2;PMS_P1;PMS_P2;Temp;Humidity;BMP_temperature;BMP_pressure;BME280_temperature;BME280_humidity;BME280_pressure;Samples;Min_cycle;Max_cycle;Signal;HPM_P1;HPM_P2
2022/08/08 00:00:10;;;;;;;23.37;8.87;;;;;;;17.10;59.21;101495.50;5325879;55;1141072;-65
2022/08/08 00:05:27;;;;;;;15.13;5.67;;;;;;;16.92;59.07;101497.14;5251247;56;1141100;-63
2022/08/08 00:10:39;;;;;;;;;;;;;;;16.83;60.01;101502.30;5251209;56;1141013;-64
2022/08/08 00:16:09;;;;;;;12.17;4.60;;;;;;;16.70;59.84;101498.17;5249961;56;976396;-63
2022/08/08 00:21:25;;;;;;;11.87;4.60;;;;;;;16.54;59.72;101498.15;5235705;55;1138988;-64
2022/08/08 00:26:38;;;;;;;9.17;3.70;;;;;;;16.47;60.13;101502.84;5251376;55;1141212;-64
2022/08/08 00:31:50;;;;;;;7.87;3.77;;;;;;;16.45;60.37;101497.63;5237768;56;1138990;-63
2022/08/08 00:37:00;;;;;;;5.97;3.60;;;;;;;16.46;60.56;101496.65;5251410;56;1138998;-64
2022/08/08 00:42:11;;;;;;;11.17;3.97;;;;;;;16.45;60.19;101494.11;5248515;55;1138834;-63
2022/08/08 00:48:04;;;;;;;14.13;3.33;;;;;;;16.33;60.27;101496.52;5336521;54;1141169;-64
2022/08/08 00:53:48;;;;;;;10.77;6.23;;;;;;;16.21;60.29;101493.53;5251111;56;1141104;-64
2022/08/08 00:59:08;;;;;;;13.00;5.00;;;;;;;16.01;60.99;101498.77;5246543;56;1139012;-65
2022/08/08 01:04:52;;;;;;;9.90;5.40;;;;;;;15.86;61.13;101496.06;5323128;54;1139168;-64
2022/08/08 01:10:38;;;;;;;12.70;4.80;;;;;;;15.71;61.88;101491.53;5207317;56;1134879;-64
2022/08/08 01:16:24;;;;;;;13.58;2.95;;;;;;;15.58;61.80;101488.20;5243768;56;1141034;-65
2022/08/08 01:21:37;;;;;;;5.90;2.77;;;;;;;15.58;62.76;101486.87;5342817;54;1141234;-64
2022/08/08 01:27:20;;;;;;;9.18;3.20;;;;;;;15.49;62.37;101476.43;5420963;54;1139035;-64
2022/08/08 01:33:14;;;;;;;7.27;3.03;;;;;;;15.46;63.04;101479.34;5244536;55;1139289;-64
2022/08/08 01:38:57;;;;;;;3.90;2.63;;;;;;;15.36;63.33;101480.23;5424006;54;1139069;-65
2022/08/08 01:44:28;;;;;;;2.85;2.27;;;;;;;15.30;64.28;101480.25;5251355;56;1137115;-63
2022/08/08 01:49:50;;;;;;;4.53;2.50;;;;;;;15.20;64.70;101477.98;5423496;54;1137175;-64
2022/08/08 01:55:09;;;;;;;2.47;2.10;;;;;;;15.14;64.53;101472.66;5250023;55;1136920;-65
2022/08/08 02:00:20;;;;;;;6.67;2.70;;;;;;;15.19;65.48;101471.45;5243925;56;1139056;-64
2022/08/08 02:05:47;;;;;;;10.03;2.93;;;;;;;15.23;65.54;101479.08;5249939;55;1139097;-64
2022/08/08 02:11:14;;;;;;;9.17;3.20;;;;;;;15.29;65.85;101477.22;5421472;54;1141379;-65
2022/08/08 02:16:24;;;;;;;12.23;4.03;;;;;;;15.30;65.55;101476.73;5249873;56;1138976;-65
2022/08/08 02:27:41;;;;;;;5.60;2.20;;;;;;;14.99;65.25;101479.72;5248648;56;1139136;-65
2022/08/08 02:33:24;;;;;;;13.53;3.97;;;;;;;14.93;65.91;101477.56;5193268;56;1139166;-63
2022/08/08 02:39:03;;;;;;;16.87;4.17;;;;;;;14.91;66.06;101488.34;5194336;56;1140813;-64
2022/08/08 02:44:56;;;;;;;14.87;4.17;;;;;;;14.81;66.23;101493.20;5147277;56;1139014;-65
2022/08/08 02:50:38;;;;;;;24.33;6.63;;;;;;;14.63;66.06;101500.84;5136100;57;1139114;-65
2022/08/08 02:56:29;;;;;;;25.87;5.60;;;;;;;14.43;66.46;101509.05;5141083;57;1141087;-64
2022/08/08 03:02:16;;;;;;;27.57;5.37;;;;;;;14.44;67.00;101502.75;5115284;57;1141206;-64
2022/08/08 03:07:52;;;;;;;34.93;6.60;;;;;;;14.43;67.20;101502.39;5186627;55;1141356;-63
2022/08/08 03:13:05;;;;;;;58.53;7.63;;;;;;;14.49;67.36;101499.74;5225468;56;1141116;-63
2022/08/08 03:18:31;;;;;;;43.83;7.40;;;;;;;14.57;67.43;101495.50;5227170;56;1141305;-63
2022/08/08 03:23:38;;;;;;;45.90;7.00;;;;;;;14.57;67.03;101494.17;5314976;55;1141032;-65
2022/08/08 03:28:51;;;;;;;60.33;8.10;;;;;;;14.55;66.83;101497.91;5292792;55;1141089;-63
2022/08/08 03:33:58;;;;;;;49.07;7.50;;;;;;;14.49;66.75;101498.41;5259621;55;1138983;-64
2022/08/08 03:39:04;;;;;;;37.37;5.97;;;;;;;14.50;67.21;101500.95;5133551;57;1139040;-63
2022/08/08 03:44:12;;;;;;;46.50;7.20;;;;;;;14.50;67.12;101500.95;5220363;56;1139028;-64
2022/08/08 03:49:25;;;;;;;51.43;5.53;;;;;;;14.52;67.18;101495.00;5318683;55;1139269;-63
2022/08/08 03:54:32;;;;;;;16.13;3.63;;;;;;;14.49;67.05;101500.59;5319198;55;1138901;-64
2022/08/08 03:59:39;;;;;;;47.13;5.80;;;;;;;14.52;67.46;101496.81;5318322;55;1138979;-64
2022/08/08 04:04:46;;;;;;;30.10;5.60;;;;;;;14.49;67.54;101501.92;5241831;55;1139060;-63
2022/08/08 04:09:58;;;;;;;64.20;8.47;;;;;;;14.46;67.45;101508.81;5216692;56;1138938;-64
2022/08/08 04:15:05;;;;;;;47.10;9.30;;;;;;;14.45;67.72;101513.77;5317895;55;1139015;-63
2022/08/08 04:20:12;;;;;;;53.93;7.10;;;;;;;14.41;67.59;101515.81;5302899;55;1138938;-63
2022/08/08 04:25:17;;;;;;;41.80;5.22;;;;;;;14.31;68.36;101516.14;5198726;56;1138983;-63
2022/08/08 04:30:23;;;;;;;33.73;4.53;;;;;;;14.17;68.77;101528.34;5312074;55;1139215;-63
2022/08/08 04:35:31;;;;;;;29.83;3.97;;;;;;;14.16;69.41;101527.12;5159172;56;1139266;-64
2022/08/08 04:40:37;;;;;;;37.77;4.20;;;;;;;14.21;70.13;101528.44;5217803;56;1137028;-64
2022/08/08 04:45:43;;;;;;;36.13;5.63;;;;;;;14.32;70.61;101535.14;5224286;55;1137235;-63
2022/08/08 04:50:49;;;;;;;44.07;5.33;;;;;;;14.45;71.01;101535.55;5246937;56;21280;-64
2022/08/08 04:55:56;;;;;;;20.10;4.22;;;;;;;14.48;71.16;101532.17;5227530;55;1137076;-65
2022/08/08 05:01:04;;;;;;;78.30;6.10;;;;;;;14.60;71.57;101539.19;5230580;55;1141140;-63
2022/08/08 05:06:11;;;;;;;25.30;3.70;;;;;;;14.65;71.29;101535.70;5313566;55;1141086;-64
2022/08/08 05:11:17;;;;;;;22.63;4.43;;;;;;;14.72;72.54;101536.05;5242992;56;1141170;-63
2022/08/08 05:16:24;;;;;;;15.40;3.07;;;;;;;14.82;72.58;101537.00;5286627;55;1141207;-63
2022/08/08 05:21:30;;;;;;;10.47;3.03;;;;;;;14.96;73.51;101535.94;5243047;56;1141381;-65
2022/08/08 05:26:37;;;;;;;9.83;3.33;;;;;;;15.12;73.82;101536.41;5243061;56;1141189;-64
2022/08/08 05:31:43;;;;;;;10.80;3.30;;;;;;;15.36;74.48;101543.73;5184649;56;1139026;-64
2022/08/08 05:36:52;;;;;;;19.07;3.17;;;;;;;15.61;74.23;101543.08;5211411;56;1141152;-63
2022/08/08 05:41:59;;;;;;;92.23;6.10;;;;;;;15.94;74.28;101548.77;5156476;57;1141153;-64
2022/08/08 05:47:06;;;;;;;22.97;3.37;;;;;;;16.25;73.95;101551.87;5126267;56;1141041;-64
2022/08/08 05:52:12;;;;;;;17.20;3.37;;;;;;;16.56;73.60;101550.09;5243011;56;1141069;-65
2022/08/08 05:57:18;;;;;;;20.40;3.10;;;;;;;16.87;73.79;101549.64;5311278;55;1141051;-64
2022/08/08 06:07:52;;;;;;;27.70;3.63;;;;;;;17.50;72.83;101554.25;5332399;55;1141354;-63
2022/08/08 06:12:58;;;;;;;37.83;4.90;;;;;;;17.86;72.08;101556.30;5332339;55;1141343;-65
2022/08/08 06:18:05;;;;;;;5.57;2.77;;;;;;;18.22;71.02;101553.36;5332473;55;1141070;-63
2022/08/08 06:23:12;;;;;;;30.90;3.70;;;;;;;18.55;69.11;101555.20;5299894;55;1139043;-64
2022/08/08 06:28:29;;;;;;;30.13;3.57;;;;;;;18.72;67.04;101561.67;5332166;55;1141314;-64
2022/08/08 06:34:05;;;;;;;28.80;2.60;;;;;;;18.76;66.36;101568.44;5332149;55;1141112;-65
2022/08/08 06:39:16;;;;;;;20.57;3.00;;;;;;;18.82;65.89;101566.48;5332310;55;1141386;-65
2022/08/08 06:44:24;;;;;;;;;;;;;;;19.05;65.98;101565.63;5334761;55;1141109;-65
2022/08/08 06:49:32;;;;;;;9.03;2.87;;;;;;;19.16;66.10;101563.59;5319247;55;976411;-65
2022/08/08 06:54:38;;;;;;;11.35;2.30;;;;;;;19.30;65.49;101560.90;5316865;55;1135156;-63
2022/08/08 06:59:44;;;;;;;8.03;2.35;;;;;;;19.56;65.73;101559.20;5316877;55;1139023;-64
2022/08/08 07:05:12;;;;;;;7.45;1.77;;;;;;;19.82;64.97;101559.30;5316649;55;1136942;-65
2022/08/08 07:10:24;;;;;;;5.58;1.70;;;;;;;20.02;63.57;101559.47;5316796;55;1136947;-64
2022/08/08 07:15:35;;;;;;;2.42;1.40;;;;;;;20.23;61.97;101555.61;5316859;55;1137170;-64
2022/08/08 07:20:46;;;;;;;2.12;1.40;;;;;;;20.54;61.59;101555.52;5266799;55;1137133;-65
2022/08/08 07:25:53;;;;;;;3.27;1.70;;;;;;;20.88;61.17;101551.52;5228043;56;1137124;-65
2022/08/08 07:31:00;;;;;;;5.00;1.15;;;;;;;21.23;59.18;101551.87;5228433;55;1137087;-64
2022/08/08 07:36:09;;;;;;;4.78;1.35;;;;;;;21.60;57.41;101552.78;5227571;56;1137425;-64
2022/08/08 07:41:18;;;;;;;6.87;1.32;;;;;;;21.73;54.48;101556.34;5197265;56;1134897;-65
2022/08/08 07:46:24;;;;;;;6.92;1.75;;;;;;;;;;5205101;56;1135425;-65
2022/08/08 07:51:32;;;;;;;5.17;1.30;;;;;;;22.44;55.39;101556.55;5256253;55;818022;-64
2022/08/08 07:56:58;;;;;;;6.50;1.80;;;;;;;22.66;52.56;101561.70;5233484;55;1136846;-64
2022/08/08 08:02:06;;;;;;;6.42;1.35;;;;;;;22.75;52.32;101553.11;5224464;56;1139050;-64
2022/08/08 08:07:14;;;;;;;6.72;1.40;;;;;;;23.00;50.67;101560.62;5227635;56;1139141;-64
2022/08/08 08:12:24;;;;;;;10.88;2.10;;;;;;;23.25;49.92;101560.00;5227699;56;1139071;-66
2022/08/08 08:17:30;;;;;;;4.70;1.07;;;;;;;23.53;48.41;101557.70;5226749;56;1141225;-64
2022/08/08 08:22:36;;;;;;;1.70;0.90;;;;;;;23.77;48.72;101569.69;5242349;55;1138989;-64
2022/08/08 08:27:44;;;;;;;26.85;2.37;;;;;;;23.74;44.78;101568.69;5154498;56;1138993;-64
2022/08/08 08:32:50;;;;;;;18.62;1.80;;;;;;;23.63;43.80;101571.30;5215123;56;1141121;-65
2022/08/08 08:37:56;;;;;;;8.70;1.77;;;;;;;23.47;45.17;101570.86;5316825;55;1141085;-67
2022/08/08 08:43:02;;;;;;;3.77;1.32;;;;;;;23.29;43.99;101578.38;5284567;55;1139008;-66
2022/08/08 08:48:09;;;;;;;3.33;0.70;;;;;;;23.19;43.59;101575.05;5330265;55;1139013;-66
2022/08/08 08:53:16;;;;;;;3.17;1.20;;;;;;;23.07;43.01;101581.32;5343156;55;1139048;-66
2022/08/08 08:58:34;;;;;;;7.40;1.65;;;;;;;22.79;42.47;101576.03;5343347;55;1139069;-65
2022/08/08 09:03:43;;;;;;;13.55;1.67;;;;;;;22.78;42.42;101576.53;5343262;55;1139038;-66
2022/08/08 09:08:54;;;;;;;7.20;1.50;;;;;;;22.96;42.44;101580.36;5343098;55;1141160;-65
2022/08/08 09:14:01;;;;;;;1.65;1.10;;;;;;;23.22;42.88;101569.82;5342689;55;1139025;-65
2022/08/08 09:19:09;;;;;;;4.78;1.20;;;;;;;23.43;41.34;101568.17;5294725;55;1138929;-65
2022/08/08 09:24:16;;;;;;;9.20;1.98;;;;;;;23.44;41.97;101567.16;5343086;55;1138995;-66
2022/08/08 09:29:25;;;;;;;2.80;1.00;;;;;;;23.81;38.80;101565.61;5338992;55;1139138;-65
2022/08/08 09:34:35;;;;;;;7.25;1.30;;;;;;;23.81;38.80;101565.61;5330350;55;1138954;-65
2022/08/08 09:40:04;;;;;;;7.27;0.90;;;;;;;24.13;39.72;101570.77;5332905;55;1139023;-65
2022/08/08 09:45:24;;;;;;;4.72;1.00;;;;;;;24.18;38.60;101568.84;5341559;55;1136928;-65
2022/08/08 09:50:30;;;;;;;4.03;1.20;;;;;;;24.09;37.20;101562.68;5339355;55;1136942;-65
2022/08/08 09:55:37;;;;;;;7.97;0.95;;;;;;;24.08;38.16;101561.51;5338727;55;1136962;-65
2022/08/08 10:00:45;;;;;;;3.60;1.55;;;;;;;24.06;38.04;101560.84;5338799;55;1136876;-65
2022/08/08 10:05:52;;;;;;;4.03;1.42;;;;;;;24.54;38.47;101557.72;5339077;55;1137130;-65
2022/08/08 10:10:59;;;;;;;1.35;1.10;;;;;;;24.54;38.47;101557.72;5333772;55;1137041;-64
2022/08/08 10:16:04;;;;;;;15.35;1.85;;;;;;;24.86;36.64;101552.97;5330148;55;1136992;-66
2022/08/08 10:21:12;;;;;;;2.22;1.20;;;;;;;24.77;37.40;101554.08;5294735;55;1139236;-65
2022/08/08 10:26:29;;;;;;;2.00;1.67;;;;;;;24.60;36.90;101551.22;5423798;54;1137085;-66
2022/08/08 10:37:02;;;;;;;1.35;1.12;;;;;;;24.40;38.31;101555.84;5423549;54;1139261;-65
2022/08/08 10:42:11;;;;;;;4.63;1.27;;;;;;;24.42;38.88;101554.30;5251145;55;1139058;-66
2022/08/08 10:47:19;;;;;;;2.10;1.23;;;;;;;24.30;39.03;101551.70;5423713;54;1139107;-66
2022/08/08 10:52:40;;;;;;;5.65;1.35;;;;;;;24.19;37.70;101548.39;5391661;54;1139003;-64
2022/08/08 10:57:50;;;;;;;7.33;1.50;;;;;;;24.26;38.85;101548.55;5391577;54;1139042;-64
2022/08/08 11:02:58;;;;;;;3.35;1.37;;;;;;;24.77;39.52;101541.90;5391642;55;1139047;-65
2022/08/08 11:08:04;;;;;;;2.08;1.20;;;;;;;25.30;38.51;101540.76;5360890;55;1139013;-66
2022/08/08 11:13:10;;;;;;;2.40;1.35;;;;;;;25.57;37.16;101538.66;5391610;54;1138994;-65
2022/08/08 11:18:17;;;;;;;7.10;2.37;;;;;;;25.68;36.88;101529.20;5361190;55;1139061;-64
2022/08/08 11:23:24;;;;;;;3.98;1.15;;;;;;;25.86;35.06;101528.75;5312576;55;1138844;-66
2022/08/08 11:28:35;;;;;;;4.20;1.57;;;;;;;25.42;34.22;101519.42;5308528;55;1139053;-65
2022/08/08 11:33:41;;;;;;;3.17;1.30;;;;;;;25.42;34.22;101519.42;5321496;55;1139162;-66
2022/08/08 11:38:49;;;;;;;27.02;2.77;;;;;;;25.30;34.84;101529.08;5324482;55;1139237;-65
2022/08/08 11:43:56;;;;;;;3.85;1.30;;;;;;;25.18;35.66;101533.64;5301318;55;1141119;-66
2022/08/08 11:49:10;;;;;;;10.60;1.90;;;;;;;25.10;35.38;101532.38;5302560;55;1139257;-65
2022/08/08 11:54:15;;;;;;;2.55;1.12;;;;;;;24.97;35.27;101526.81;5311939;55;1141318;-65
2022/08/08 11:59:33;;;;;;;8.03;1.62;;;;;;;24.95;35.91;101526.16;5317524;55;1139016;-65
2022/08/08 12:04:40;;;;;;;1.35;1.22;;;;;;;24.97;36.20;101528.16;5315427;55;1139020;-64
2022/08/08 12:09:46;;;;;;;47.60;4.00;;;;;;;24.96;36.51;101534.60;5313046;54;1139265;-64
2022/08/08 12:15:05;;;;;;;1.42;0.93;;;;;;;24.99;36.09;101532.03;5320558;55;1141124;-66
2022/08/08 12:20:12;;;;;;;3.17;1.65;;;;;;;25.02;36.90;101527.09;5292365;55;1139469;-63
2022/08/08 12:25:26;;;;;;;1.50;1.20;;;;;;;24.88;36.50;101527.92;5325180;55;1139043;-66
2022/08/08 12:30:32;;;;;;;2.30;1.30;;;;;;;24.94;37.39;101523.12;5306232;55;1139184;-65
2022/08/08 12:35:42;;;;;;;7.53;1.27;;;;;;;25.12;37.22;101527.63;5305894;55;1139613;-64
2022/08/08 12:40:58;;;;;;;2.52;1.75;;;;;;;25.18;36.24;101517.41;5320007;55;1137009;-64
2022/08/08 12:45:59;;;;;;;4.63;1.30;;;;;;;25.15;35.43;101517.78;5307376;55;1136955;-63
2022/08/08 12:51:04;;;;;;;5.75;2.12;;;;;;;25.21;35.22;101512.94;5312723;55;1137032;-65
2022/08/08 12:56:11;;;;;;;1.95;1.40;;;;;;;25.21;35.30;101507.52;5163824;57;1136961;-64
2022/08/08 13:01:17;;;;;;;4.95;1.35;;;;;;;25.41;35.99;101504.20;5339617;54;1137278;-63
2022/08/08 13:06:23;;;;;;;6.47;2.00;;;;;;;25.60;35.06;101507.64;5190292;56;1136901;-65
2022/08/08 13:11:37;;;;;;;10.23;1.60;;;;;;;25.80;34.63;101502.45;5351516;54;1136954;-67
2022/08/08 13:16:43;;;;;;;1.87;1.70;;;;;;;26.19;35.11;101504.63;5330819;55;1139262;-66
2022/08/08 13:21:50;;;;;;;2.22;1.20;;;;;;;26.37;33.18;101497.39;5294410;55;1137037;-64
2022/08/08 13:27:04;;;;;;;2.52;1.05;;;;;;;26.27;33.04;101501.27;5313471;55;1137012;-64
2022/08/08 13:32:09;;;;;;;11.83;1.90;;;;;;;26.08;32.83;101498.41;5335769;55;1137149;-65
2022/08/08 13:37:17;;;;;;;2.33;1.27;;;;;;;25.92;33.99;101499.01;5338115;55;1139248;-66
2022/08/08 13:42:24;;;;;;;1.80;1.70;;;;;;;25.79;33.91;101497.55;5331166;55;1137183;-65
2022/08/08 13:47:30;;;;;;;10.85;1.95;;;;;;;25.84;34.20;101495.58;5331422;55;1134893;-64
2022/08/08 13:52:39;;;;;;;12.43;2.80;;;;;;;25.86;34.48;101496.22;5293680;55;1137154;-66
2022/08/08 13:57:45;;;;;;;7.45;1.52;;;;;;;25.85;34.48;101499.97;5390701;54;1141053;-65
2022/08/08 14:03:00;;;;;;;3.90;1.73;;;;;;;25.68;34.59;101493.98;5392043;54;1139327;-65
2022/08/08 14:08:06;;;;;;;3.40;1.47;;;;;;;25.57;34.55;101501.24;5388227;55;1139106;-64
2022/08/08 14:13:16;;;;;;;7.65;3.20;;;;;;;25.54;35.59;101502.46;5368014;54;1138987;-65
2022/08/08 14:18:26;;;;;;;4.92;1.32;;;;;;;25.52;34.99;101500.45;5392150;54;1138947;-64
2022/08/08 14:23:43;;;;;;;4.80;2.00;;;;;;;25.43;34.60;101500.79;5391592;54;1138989;-64
2022/08/08 14:28:57;;;;;;;3.08;1.82;;;;;;;25.41;35.28;101502.33;5313058;55;1139210;-66
2022/08/08 14:34:03;;;;;;;10.65;2.87;;;;;;;25.40;35.48;101502.52;5290851;55;1138872;-66
2022/08/08 14:39:09;;;;;;;1.77;1.52;;;;;;;25.31;35.19;101503.69;5278502;55;1141668;-64
2022/08/08 14:44:15;;;;;;;5.17;1.72;;;;;;;25.30;35.43;101510.12;5285663;55;1138865;-66
2022/08/08 14:49:21;;;;;;;1.20;1.20;;;;;;;25.28;36.30;101510.31;5282514;55;1139107;-65
2022/08/08 14:54:27;;;;;;;1.98;1.40;;;;;;;25.19;35.64;101506.06;5334936;54;1139123;-67
2022/08/08 14:59:33;;;;;;;1.80;1.17;;;;;;;25.19;35.91;101505.55;5329024;55;1139175;-63
2022/08/08 15:04:39;;;;;;;3.72;1.20;;;;;;;25.16;36.07;101511.34;5351207;54;1139242;-64
2022/08/08 15:09:46;;;;;;;1.65;1.30;;;;;;;25.08;35.04;101517.36;5225901;56;1139350;-64
2022/08/08 15:14:52;;;;;;;2.22;1.62;;;;;;;25.00;34.96;101515.61;5416798;54;1138935;-64
2022/08/08 15:19:58;;;;;;;5.25;2.10;;;;;;;24.97;35.63;101514.63;5349158;54;1138994;-65
2022/08/08 15:25:07;;;;;;;2.95;1.50;;;;;;;24.97;35.97;101514.63;5329983;54;1138972;-63
2022/08/08 15:30:14;;;;;;;2.58;1.32;;;;;;;24.93;36.19;101513.28;5339698;54;1139068;-64
2022/08/08 15:35:21;;;;;;;10.18;2.35;;;;;;;25.00;36.28;101507.49;5241273;56;1139198;-65
2022/08/08 15:40:27;;;;;;;4.47;1.70;;;;;;;25.11;36.61;101500.73;5249309;55;1141071;-65
2022/08/08 15:45:33;;;;;;;10.15;1.85;;;;;;;25.18;35.85;101500.31;5249842;55;1139309;-65
2022/08/08 15:56:03;;;;;;;8.23;2.02;;;;;;;25.23;36.22;101503.27;5241888;56;1139067;-65
2022/08/08 16:01:08;;;;;;;11.63;2.10;;;;;;;25.24;36.76;101500.89;5157351;57;1138990;-64
2022/08/08 16:06:14;;;;;;;13.78;2.47;;;;;;;25.25;36.18;101502.56;5329128;55;1141127;-65
2022/08/08 16:11:20;;;;;;;16.80;3.33;;;;;;;25.27;35.93;101505.93;5286611;55;1141129;-65
2022/08/08 16:16:27;;;;;;;8.05;2.02;;;;;;;25.25;35.93;101501.21;5201330;56;1140943;-63
2022/08/08 16:21:35;;;;;;;14.95;2.83;;;;;;;25.23;36.24;101493.28;5325671;55;1137223;-63
2022/08/08 16:26:42;;;;;;;11.00;1.75;;;;;;;25.23;36.05;101496.50;5323795;55;1138971;-64
2022/08/08 16:31:49;;;;;;;13.62;2.00;;;;;;;25.22;35.70;101492.11;5208641;56;1138978;-65
2022/08/08 16:36:55;;;;;;;20.82;2.87;;;;;;;25.22;35.96;101497.53;5347972;54;1139091;-64
2022/08/08 16:42:02;;;;;;;77.05;4.92;;;;;;;25.19;36.02;101497.42;5262800;55;1139386;-64
2022/08/08 16:47:25;;;;;;;31.30;3.47;;;;;;;25.18;36.39;101493.55;5340334;54;1138944;-63
2022/08/08 16:52:33;;;;;;;13.32;2.45;;;;;;;25.16;36.37;101494.25;5199018;56;1139276;-64
2022/08/08 16:57:39;;;;;;;58.95;4.72;;;;;;;25.11;36.47;101493.97;5200043;56;1138987;-63
2022/08/08 17:02:44;;;;;;;14.20;2.45;;;;;;;25.10;37.17;101501.25;5162916;56;1138760;-63
2022/08/08 17:07:50;;;;;;;40.25;3.95;;;;;;;25.10;36.90;101509.38;5164510;56;1139062;-64
2022/08/08 17:12:55;;;;;;;25.97;3.95;;;;;;;25.08;36.83;101503.82;5232479;55;1139072;-63
2022/08/08 17:18:01;;;;;;;16.00;2.80;;;;;;;25.02;36.85;101511.36;5310043;55;1139252;-64
2022/08/08 17:23:08;;;;;;;18.12;3.15;;;;;;;24.97;37.26;101504.31;5244725;55;1138863;-63
2022/08/08 17:28:14;;;;;;;21.27;3.02;;;;;;;24.92;37.55;101498.08;5228117;56;1137258;-64
2022/08/08 17:33:19;;;;;;;19.82;3.17;;;;;;;24.89;37.44;101503.38;5245098;55;1136887;-64
2022/08/08 17:38:26;;;;;;;38.95;4.50;;;;;;;24.87;38.32;101501.37;5312802;55;1140862;-64
2022/08/08 17:43:32;;;;;;;35.06;3.42;;;;;;;24.83;38.46;101499.22;5248890;55;1141530;-65
2022/08/08 17:48:38;;;;;;;21.63;4.30;;;;;;;24.81;38.57;101499.41;5316679;55;1141191;-64
2022/08/08 17:53:44;;;;;;;29.23;5.60;;;;;;;24.79;38.98;101503.32;5274005;55;1141119;-62
2022/08/08 17:58:51;;;;;;;34.45;6.25;;;;;;;24.73;39.71;101504.09;5355353;54;1141326;-65
2022/08/08 18:03:56;;;;;;;53.63;6.42;;;;;;;24.69;40.91;101506.33;5254612;55;1141293;-64
2022/08/08 18:09:02;;;;;;;46.83;5.65;;;;;;;24.62;41.82;101511.30;5251485;54;1141156;-64
2022/08/08 18:14:08;;;;;;;41.08;5.17;;;;;;;24.49;42.16;101510.09;5412804;54;1141020;-63
2022/08/08 18:19:24;;;;;;;53.98;6.55;;;;;;;24.38;42.40;101520.53;5251055;56;1141348;-65
2022/08/08 18:24:28;;;;;;;91.12;10.23;;;;;;;24.34;42.84;101521.41;5371920;54;1141408;-64
2022/08/08 18:29:34;;;;;;;76.15;7.75;;;;;;;24.33;44.88;101530.55;5320386;55;1143127;-63
2022/08/08 18:34:41;;;;;;;39.03;5.83;;;;;;;24.26;45.55;101538.23;5249322;56;1141341;-65
2022/08/08 18:39:47;;;;;;;34.48;4.37;;;;;;;24.14;45.36;101544.55;5249782;56;1141331;-64
2022/08/08 18:44:53;;;;;;;62.48;7.25;;;;;;;24.10;44.85;101549.50;5296821;55;1141497;-63
2022/08/08 18:49:59;;;;;;;60.10;5.87;;;;;;;24.07;45.29;101555.27;5286697;55;1141104;-63
2022/08/08 18:55:05;;;;;;;65.72;6.53;;;;;;;24.04;44.91;101563.73;5348845;54;1141197;-66
2022/08/08 19:00:15;;;;;;;46.88;6.67;;;;;;;24.02;44.80;101563.57;5289034;55;1141529;-64
2022/08/08 19:05:21;;;;;;;73.78;9.45;;;;;;;23.98;44.80;101569.88;5292931;55;1141089;-62
2022/08/08 19:10:27;;;;;;;105.72;13.80;;;;;;;23.96;45.04;101575.97;5287360;55;1141061;-64
2022/08/08 19:15:33;;;;;;;65.42;13.22;;;;;;;23.92;46.06;101573.80;5300975;55;1145400;-64
2022/08/08 19:20:40;;;;;;;86.12;13.75;;;;;;;23.77;46.35;101573.23;5321101;55;1143166;-62
2022/08/08 19:25:46;;;;;;;82.33;10.88;;;;;;;23.47;46.93;101572.20;5320927;55;1143156;-62
2022/08/08 19:30:53;;;;;;;68.97;11.05;;;;;;;23.34;48.08;101574.64;5321244;55;1143598;-65
2022/08/08 19:35:59;;;;;;;66.77;10.13;;;;;;;23.33;49.21;101582.41;5297517;54;1143306;-63
2022/08/08 19:41:05;;;;;;;67.72;10.63;;;;;;;23.33;49.78;101579.70;5233819;55;1143536;-62
2022/08/08 19:46:11;;;;;;;60.95;10.13;;;;;;;23.30;49.97;101584.61;5274945;55;1143205;-63
2022/08/08 19:51:17;;;;;;;52.03;8.75;;;;;;;23.25;49.89;101586.48;5270011;55;1143185;-63
2022/08/08 19:56:23;;;;;;;58.90;9.25;;;;;;;23.20;50.36;101591.59;5305726;54;1141328;-65
2022/08/08 20:01:29;;;;;;;50.17;8.78;;;;;;;23.09;50.61;101597.34;5310558;55;1141312;-65
2022/08/08 20:06:35;;;;;;;38.30;9.05;;;;;;;22.96;51.63;101596.55;5310822;55;1141111;-62
2022/08/08 20:11:41;;;;;;;37.70;7.87;;;;;;;22.83;52.55;101607.55;5318949;55;1141407;-65
2022/08/08 20:16:46;;;;;;;44.67;7.42;;;;;;;22.77;52.80;101611.26;5308387;55;1141314;-62
2022/08/08 20:21:52;;;;;;;36.90;6.17;;;;;;;22.75;52.53;101617.84;5308193;55;1141064;-63
2022/08/08 20:26:58;;;;;;;28.67;5.95;;;;;;;22.69;52.78;101617.16;5309392;55;1141091;-65
2022/08/08 20:32:05;;;;;;;16.95;4.62;;;;;;;22.64;53.13;101620.87;5311195;55;1141090;-65
2022/08/08 20:37:12;;;;;;;32.00;7.62;;;;;;;22.62;52.93;101619.69;5311379;55;1141103;-63
2022/08/08 20:42:24;;;;;;;90.50;54.93;;;;;;;22.55;53.09;101628.64;5310915;55;1141484;-64
2022/08/08 20:47:29;;;;;;;42.93;20.97;;;;;;;22.43;53.50;101628.16;5312722;55;1141244;-64
2022/08/08 20:52:35;;;;;;;41.00;16.80;;;;;;;22.34;52.82;101621.91;5305290;55;1141111;-65
2022/08/08 20:57:41;;;;;;;18.67;8.38;;;;;;;22.24;52.67;101622.59;5334148;54;1141139;-64
2022/08/08 21:02:47;;;;;;;14.90;5.45;;;;;;;22.18;51.90;101622.41;5413884;54;1139084;-64
2022/08/08 21:07:52;;;;;;;23.75;6.12;;;;;;;22.06;51.36;101624.09;5411088;54;1139068;-65
2022/08/08 21:12:58;;;;;;;25.08;5.03;;;;;;;21.98;51.11;101623.22;5335146;54;1139010;-64
2022/08/08 21:18:04;;;;;;;22.93;4.75;;;;;;;21.89;51.23;101622.84;5316938;55;1139221;-63
2022/08/08 21:23:11;;;;;;;23.07;6.80;;;;;;;21.80;51.21;101615.77;5308851;55;1138594;-63
2022/08/08 21:28:17;;;;;;;26.73;5.70;;;;;;;21.70;51.29;101619.44;5309030;55;1139120;-63
2022/08/08 21:33:23;;;;;;;15.23;5.33;;;;;;;21.67;51.74;101622.48;5307172;55;1139075;-63
2022/08/08 21:38:29;;;;;;;19.45;5.17;;;;;;;21.64;52.11;101628.70;5306881;55;1139040;-65
2022/08/08 21:43:35;;;;;;;20.05;4.33;;;;;;;21.51;52.32;101631.86;5317449;55;1139124;-64
2022/08/08 21:48:41;;;;;;;12.80;3.87;;;;;;;21.41;52.75;101636.01;5317360;55;1139066;-63
2022/08/08 21:53:47;;;;;;;13.98;3.00;;;;;;;21.33;53.19;101635.14;5361608;54;1139458;-63
2022/08/08 21:58:53;;;;;;;6.33;2.45;;;;;;;21.27;53.76;101642.51;5405114;54;1139170;-64
2022/08/08 22:04:00;;;;;;;24.77;3.60;;;;;;;21.15;54.27;101641.92;5388731;55;1136983;-64
2022/08/08 22:09:07;;;;;;;7.90;2.27;;;;;;;21.06;54.39;101641.55;5332257;55;1139052;-63
2022/08/08 22:14:13;;;;;;;9.95;3.08;;;;;;;20.96;54.27;101648.37;5296714;55;1134933;-63
2022/08/08 22:19:19;;;;;;;18.80;3.00;;;;;;;20.94;54.50;101644.14;5298986;55;1134728;-64
2022/08/08 22:24:25;;;;;;;14.50;3.80;;;;;;;20.94;54.42;101647.67;5299673;55;1141129;-66
2022/08/08 22:29:31;;;;;;;17.72;3.74;;;;;;;20.99;54.43;101645.36;5299744;55;1141176;-63
2022/08/08 22:34:37;;;;;;;14.40;3.53;;;;;;;21.05;54.40;101654.66;5311155;55;1141073;-65
2022/08/08 22:39:42;;;;;;;21.73;4.37;;;;;;;21.08;54.20;101654.34;5311062;55;1141199;-62
2022/08/08 22:44:48;;;;;;;13.38;3.27;;;;;;;21.06;54.08;101655.00;5310954;55;1141116;-64
2022/08/08 22:49:54;;;;;;;11.45;3.22;;;;;;;21.01;54.33;101647.40;5341016;54;1141176;-64
2022/08/08 22:55:00;;;;;;;18.80;3.15;;;;;;;20.87;53.92;101652.02;5385311;55;1141196;-63
2022/08/08 23:00:10;;;;;;;18.50;3.70;;;;;;;20.76;54.18;101653.63;5394474;54;1141343;-64
2022/08/08 23:05:15;;;;;;;13.72;4.10;;;;;;;20.72;54.40;101654.94;5243705;56;1141241;-63
2022/08/08 23:10:21;;;;;;;9.93;2.95;;;;;;;20.55;54.28;101650.44;5349301;54;1141242;-65
2022/08/08 23:15:27;;;;;;;12.20;3.75;;;;;;;20.34;54.72;101655.61;5233557;55;1139057;-63
2022/08/08 23:20:33;;;;;;;17.00;3.02;;;;;;;20.32;55.61;101653.57;5328061;55;1141205;-64
2022/08/08 23:25:39;;;;;;;9.88;4.03;;;;;;;20.33;56.06;101651.73;5328435;55;1141421;-65
2022/08/08 23:30:45;;;;;;;13.72;3.35;;;;;;;20.28;56.25;101650.03;5340487;55;1138935;-63
2022/08/08 23:35:51;;;;;;;16.32;4.08;;;;;;;20.02;55.53;101649.93;5340835;55;1141194;-63
2022/08/08 23:40:57;;;;;;;19.42;4.33;;;;;;;19.98;56.47;101643.20;5341000;55;1141121;-63